sensor_id;sensor_type;location;lat;lon;timestamp;temperature;humidity
5130;DHT22;2583;50.946;6.954;2023-03-26T00:01:14;10.80;97.00
5130;DHT22;2583;50.946;6.954;2023-03-26T00:03:42;10.80;97.60
5130;DHT22;2583;50.946;6.954;2023-03-26T00:06:14;10.80;97.50
5130;DHT22;2583;50.946;6.954;2023-03-26T00:08:43;10.80;97.60
5130;DHT22;2583;50.946;6.954;2023-03-26T00:11:14;10.80;97.30
5130;DHT22;2583;50.946;6.954;2023-03-26T00:13:42;10.80;97.00
5130;DHT22;2583;50.946;6.954;2023-03-26T00:16:16;10.80;97.20
5130;DHT22;2583;50.946;6.954;2023-03-26T00:18:44;10.80;97.00
5130;DHT22;2583;50.946;6.954;2023-03-26T00:21:14;10.80;97.10
5130;DHT22;2583;50.946;6.954;2023-03-26T00:23:42;10.80;97.50
5130;DHT22;2583;50.946;6.954;2023-03-26T00:26:09;10.90;98.80
5130;DHT22;2583;50.946;6.954;2023-03-26T00:28:38;10.80;97.90
5130;DHT22;2583;50.946;6.954;2023-03-26T00:31:08;10.90;98.30
5130;DHT22;2583;50.946;6.954;2023-03-26T00:33:35;10.90;97.30
5130;DHT22;2583;50.946;6.954;2023-03-26T00:36:07;10.90;97.80
5130;DHT22;2583;50.946;6.954;2023-03-26T00:38:37;10.90;97.80
5130;DHT22;2583;50.946;6.954;2023-03-26T00:41:09;10.90;97.60
5130;DHT22;2583;50.946;6.954;2023-03-26T00:43:44;10.90;98.00
5130;DHT22;2583;50.946;6.954;2023-03-26T00:46:15;10.90;97.00
5130;DHT22;2583;50.946;6.954;2023-03-26T00:48:44;10.90;96.50
5130;DHT22;2583;50.946;6.954;2023-03-26T00:51:14;11.00;97.10
5130;DHT22;2583;50.946;6.954;2023-03-26T00:53:43;10.90;97.60
5130;DHT22;2583;50.946;6.954;2023-03-26T00:56:10;11.00;96.70
5130;DHT22;2583;50.946;6.954;2023-03-26T00:58:38;10.90;96.60
5130;DHT22;2583;50.946;6.954;2023-03-26T01:01:11;10.90;96.30
5130;DHT22;2583;50.946;6.954;2023-03-26T01:03:43;10.90;96.20
5130;DHT22;2583;50.946;6.954;2023-03-26T01:06:32;10.90;96.50
5130;DHT22;2583;50.946;6.954;2023-03-26T01:09:09;10.90;96.30
5130;DHT22;2583;50.946;6.954;2023-03-26T01:11:38;10.90;96.60
5130;DHT22;2583;50.946;6.954;2023-03-26T01:14:09;10.90;95.90
5130;DHT22;2583;50.946;6.954;2023-03-26T01:19:22;10.70;97.00
5130;DHT22;2583;50.946;6.954;2023-03-26T01:21:51;10.70;97.50
5130;DHT22;2583;50.946;6.954;2023-03-26T01:24:18;10.60;98.40
5130;DHT22;2583;50.946;6.954;2023-03-26T01:32:21;10.40;99.90
5130;DHT22;2583;50.946;6.954;2023-03-26T01:37:59;10.30;99.90
5130;DHT22;2583;50.946;6.954;2023-03-26T01:40:33;10.20;99.90
5130;DHT22;2583;50.946;6.954;2023-03-26T01:45:55;10.10;99.90
5130;DHT22;2583;50.946;6.954;2023-03-26T01:48:37;10.10;99.90
5130;DHT22;2583;50.946;6.954;2023-03-26T01:51:06;10.10;99.90
5130;DHT22;2583;50.946;6.954;2023-03-26T01:53:43;10.10;99.90
5130;DHT22;2583;50.946;6.954;2023-03-26T02:02:34;10.00;99.90
5130;DHT22;2583;50.946;6.954;2023-03-26T02:08:20;9.90;99.90
5130;DHT22;2583;50.946;6.954;2023-03-26T02:10:44;9.90;99.90
5130;DHT22;2583;50.946;6.954;2023-03-26T02:13:12;9.80;99.90
5130;DHT22;2583;50.946;6.954;2023-03-26T02:15:40;9.90;99.90
5130;DHT22;2583;50.946;6.954;2023-03-26T02:18:07;9.90;99.90
5130;DHT22;2583;50.946;6.954;2023-03-26T02:20:36;9.90;99.90
5130;DHT22;2583;50.946;6.954;2023-03-26T02:23:03;10.00;99.90
5130;DHT22;2583;50.946;6.954;2023-03-26T02:25:30;10.00;99.90
5130;DHT22;2583;50.946;6.954;2023-03-26T02:27:57;10.00;99.90
5130;DHT22;2583;50.946;6.954;2023-03-26T02:30:25;10.00;99.90
5130;DHT22;2583;50.946;6.954;2023-03-26T02:32:53;10.10;99.90
5130;DHT22;2583;50.946;6.954;2023-03-26T02:35:21;10.00;99.90
5130;DHT22;2583;50.946;6.954;2023-03-26T02:37:48;10.10;99.90
5130;DHT22;2583;50.946;6.954;2023-03-26T02:40:17;10.10;99.90
5130;DHT22;2583;50.946;6.954;2023-03-26T02:42:46;10.10;99.90
5130;DHT22;2583;50.946;6.954;2023-03-26T02:45:14;10.20;99.90
5130;DHT22;2583;50.946;6.954;2023-03-26T02:47:41;10.20;99.90
5130;DHT22;2583;50.946;6.954;2023-03-26T02:50:09;10.20;99.90
5130;DHT22;2583;50.946;6.954;2023-03-26T02:52:37;10.20;99.90
5130;DHT22;2583;50.946;6.954;2023-03-26T02:55:04;10.30;99.90
5130;DHT22;2583;50.946;6.954;2023-03-26T02:57:31;10.30;99.90
5130;DHT22;2583;50.946;6.954;2023-03-26T02:59:57;10.30;99.90
5130;DHT22;2583;50.946;6.954;2023-03-26T03:02:24;10.30;99.90
5130;DHT22;2583;50.946;6.954;2023-03-26T03:04:55;10.40;99.90
5130;DHT22;2583;50.946;6.954;2023-03-26T03:07:27;10.40;99.90
5130;DHT22;2583;50.946;6.954;2023-03-26T03:09:54;10.40;99.90
5130;DHT22;2583;50.946;6.954;2023-03-26T03:12:21;10.40;99.90
5130;DHT22;2583;50.946;6.954;2023-03-26T03:14:48;10.40;99.90
5130;DHT22;2583;50.946;6.954;2023-03-26T03:17:15;10.50;99.90
5130;DHT22;2583;50.946;6.954;2023-03-26T03:19:42;10.50;99.90
5130;DHT22;2583;50.946;6.954;2023-03-26T03:22:09;10.50;99.80
5130;DHT22;2583;50.946;6.954;2023-03-26T03:24:35;10.50;99.90
5130;DHT22;2583;50.946;6.954;2023-03-26T03:27:03;10.50;99.90
5130;DHT22;2583;50.946;6.954;2023-03-26T03:29:30;10.60;99.90
5130;DHT22;2583;50.946;6.954;2023-03-26T03:31:56;10.50;99.90
5130;DHT22;2583;50.946;6.954;2023-03-26T03:34:26;10.50;99.90
5130;DHT22;2583;50.946;6.954;2023-03-26T03:36:52;10.50;99.90
5130;DHT22;2583;50.946;6.954;2023-03-26T03:39:19;10.50;99.80
5130;DHT22;2583;50.946;6.954;2023-03-26T03:41:46;10.40;99.90
5130;DHT22;2583;50.946;6.954;2023-03-26T03:44:14;10.40;99.90
5130;DHT22;2583;50.946;6.954;2023-03-26T03:46:42;10.40;99.90
5130;DHT22;2583;50.946;6.954;2023-03-26T03:49:09;10.40;99.90
5130;DHT22;2583;50.946;6.954;2023-03-26T03:51:36;10.40;99.90
5130;DHT22;2583;50.946;6.954;2023-03-26T03:54:02;10.30;99.90
5130;DHT22;2583;50.946;6.954;2023-03-26T03:56:29;10.30;99.90
5130;DHT22;2583;50.946;6.954;2023-03-26T03:58:56;10.30;99.90
5130;DHT22;2583;50.946;6.954;2023-03-26T04:01:23;10.30;99.90
5130;DHT22;2583;50.946;6.954;2023-03-26T04:03:50;10.30;99.90
5130;DHT22;2583;50.946;6.954;2023-03-26T04:06:17;10.30;99.90
5130;DHT22;2583;50.946;6.954;2023-03-26T04:08:45;10.30;99.90
5130;DHT22;2583;50.946;6.954;2023-03-26T04:11:12;10.20;99.90
5130;DHT22;2583;50.946;6.954;2023-03-26T04:13:39;10.20;99.90
5130;DHT22;2583;50.946;6.954;2023-03-26T04:16:07;10.10;99.90
5130;DHT22;2583;50.946;6.954;2023-03-26T04:18:34;10.20;99.90
5130;DHT22;2583;50.946;6.954;2023-03-26T04:21:03;10.10;99.90
5130;DHT22;2583;50.946;6.954;2023-03-26T04:23:31;10.10;99.90
5130;DHT22;2583;50.946;6.954;2023-03-26T04:26:01;10.20;99.90
5130;DHT22;2583;50.946;6.954;2023-03-26T04:28:50;10.10;99.90
5130;DHT22;2583;50.946;6.954;2023-03-26T04:31:22;10.20;99.90
5130;DHT22;2583;50.946;6.954;2023-03-26T04:33:51;10.20;99.90
5130;DHT22;2583;50.946;6.954;2023-03-26T04:36:27;10.20;99.90
5130;DHT22;2583;50.946;6.954;2023-03-26T04:38:55;10.20;99.90
5130;DHT22;2583;50.946;6.954;2023-03-26T04:41:24;10.20;99.90
5130;DHT22;2583;50.946;6.954;2023-03-26T04:43:54;10.10;99.90
5130;DHT22;2583;50.946;6.954;2023-03-26T04:46:22;10.10;99.90
5130;DHT22;2583;50.946;6.954;2023-03-26T04:48:50;10.10;99.90
5130;DHT22;2583;50.946;6.954;2023-03-26T04:51:19;10.20;99.90
5130;DHT22;2583;50.946;6.954;2023-03-26T04:53:55;10.10;99.90
5130;DHT22;2583;50.946;6.954;2023-03-26T04:59:18;10.10;99.90
5130;DHT22;2583;50.946;6.954;2023-03-26T05:01:45;10.10;99.90
5130;DHT22;2583;50.946;6.954;2023-03-26T05:04:12;10.10;99.90
5130;DHT22;2583;50.946;6.954;2023-03-26T05:06:40;10.10;99.90
5130;DHT22;2583;50.946;6.954;2023-03-26T05:09:07;10.10;99.90
5130;DHT22;2583;50.946;6.954;2023-03-26T05:11:36;10.10;99.90
5130;DHT22;2583;50.946;6.954;2023-03-26T05:14:02;10.10;99.90
5130;DHT22;2583;50.946;6.954;2023-03-26T05:16:30;10.10;99.90
5130;DHT22;2583;50.946;6.954;2023-03-26T05:18:57;10.10;99.90
5130;DHT22;2583;50.946;6.954;2023-03-26T05:21:24;10.10;99.90
5130;DHT22;2583;50.946;6.954;2023-03-26T05:23:51;10.10;99.90
5130;DHT22;2583;50.946;6.954;2023-03-26T05:26:18;10.10;99.90
5130;DHT22;2583;50.946;6.954;2023-03-26T05:28:45;10.10;99.90
5130;DHT22;2583;50.946;6.954;2023-03-26T05:31:12;10.10;99.90
5130;DHT22;2583;50.946;6.954;2023-03-26T05:33:41;10.00;99.90
5130;DHT22;2583;50.946;6.954;2023-03-26T05:36:10;10.00;99.90
5130;DHT22;2583;50.946;6.954;2023-03-26T05:38:38;10.00;99.90
5130;DHT22;2583;50.946;6.954;2023-03-26T05:41:07;10.00;99.90
5130;DHT22;2583;50.946;6.954;2023-03-26T05:43:35;10.00;99.90
5130;DHT22;2583;50.946;6.954;2023-03-26T05:46:01;10.00;99.90
5130;DHT22;2583;50.946;6.954;2023-03-26T05:48:29;9.90;99.90
5130;DHT22;2583;50.946;6.954;2023-03-26T05:50:57;9.90;99.90
5130;DHT22;2583;50.946;6.954;2023-03-26T05:53:25;9.90;99.90
5130;DHT22;2583;50.946;6.954;2023-03-26T05:55:53;9.90;99.90
5130;DHT22;2583;50.946;6.954;2023-03-26T05:58:27;9.80;99.90
5130;DHT22;2583;50.946;6.954;2023-03-26T06:00:57;9.80;99.90
5130;DHT22;2583;50.946;6.954;2023-03-26T06:03:25;9.70;99.90
5130;DHT22;2583;50.946;6.954;2023-03-26T06:05:52;9.70;99.90
5130;DHT22;2583;50.946;6.954;2023-03-26T06:08:20;9.60;99.90
5130;DHT22;2583;50.946;6.954;2023-03-26T06:10:48;9.50;99.90
5130;DHT22;2583;50.946;6.954;2023-03-26T06:13:16;9.50;99.90
5130;DHT22;2583;50.946;6.954;2023-03-26T06:15:43;9.40;99.90
5130;DHT22;2583;50.946;6.954;2023-03-26T06:18:10;9.40;99.90
5130;DHT22;2583;50.946;6.954;2023-03-26T06:20:37;9.30;99.90
5130;DHT22;2583;50.946;6.954;2023-03-26T06:23:06;9.30;99.90
5130;DHT22;2583;50.946;6.954;2023-03-26T06:25:33;9.30;99.90
5130;DHT22;2583;50.946;6.954;2023-03-26T06:27:59;9.20;99.90
5130;DHT22;2583;50.946;6.954;2023-03-26T06:30:26;9.20;99.90
5130;DHT22;2583;50.946;6.954;2023-03-26T06:32:53;9.20;99.90
5130;DHT22;2583;50.946;6.954;2023-03-26T06:35:20;9.10;99.90
5130;DHT22;2583;50.946;6.954;2023-03-26T06:37:47;9.10;99.90
5130;DHT22;2583;50.946;6.954;2023-03-26T06:40:13;9.10;99.90
5130;DHT22;2583;50.946;6.954;2023-03-26T06:42:41;9.10;99.90
5130;DHT22;2583;50.946;6.954;2023-03-26T06:45:28;9.20;99.90
5130;DHT22;2583;50.946;6.954;2023-03-26T06:47:56;9.20;99.90
5130;DHT22;2583;50.946;6.954;2023-03-26T06:50:23;9.10;99.90
5130;DHT22;2583;50.946;6.954;2023-03-26T06:52:52;9.10;99.90
5130;DHT22;2583;50.946;6.954;2023-03-26T06:55:19;9.10;99.90
5130;DHT22;2583;50.946;6.954;2023-03-26T06:57:54;9.10;99.90
5130;DHT22;2583;50.946;6.954;2023-03-26T07:00:22;9.10;99.90
5130;DHT22;2583;50.946;6.954;2023-03-26T07:02:49;9.10;99.90
5130;DHT22;2583;50.946;6.954;2023-03-26T07:05:16;9.00;99.90
5130;DHT22;2583;50.946;6.954;2023-03-26T07:07:43;9.00;99.90
5130;DHT22;2583;50.946;6.954;2023-03-26T07:10:12;9.00;99.90
5130;DHT22;2583;50.946;6.954;2023-03-26T07:12:39;9.10;99.90
5130;DHT22;2583;50.946;6.954;2023-03-26T07:15:08;9.00;99.90
5130;DHT22;2583;50.946;6.954;2023-03-26T07:17:36;9.00;99.90
5130;DHT22;2583;50.946;6.954;2023-03-26T07:20:04;9.00;99.90
5130;DHT22;2583;50.946;6.954;2023-03-26T07:22:32;9.00;99.90
5130;DHT22;2583;50.946;6.954;2023-03-26T07:24:59;9.00;99.90
5130;DHT22;2583;50.946;6.954;2023-03-26T07:33:00;9.00;99.90
5130;DHT22;2583;50.946;6.954;2023-03-26T07:36:22;9.00;99.90
5130;DHT22;2583;50.946;6.954;2023-03-26T07:38:41;9.00;99.90
5130;DHT22;2583;50.946;6.954;2023-03-26T07:46:33;8.90;99.90
5130;DHT22;2583;50.946;6.954;2023-03-26T07:49:03;8.90;99.90
5130;DHT22;2583;50.946;6.954;2023-03-26T07:51:31;8.90;99.90
5130;DHT22;2583;50.946;6.954;2023-03-26T07:53:58;8.90;99.90
5130;DHT22;2583;50.946;6.954;2023-03-26T07:56:36;8.90;99.90
5130;DHT22;2583;50.946;6.954;2023-03-26T07:59:18;8.90;99.90
5130;DHT22;2583;50.946;6.954;2023-03-26T08:04:52;8.90;99.90
5130;DHT22;2583;50.946;6.954;2023-03-26T08:10:32;8.90;99.90
5130;DHT22;2583;50.946;6.954;2023-03-26T08:13:07;8.90;99.90
5130;DHT22;2583;50.946;6.954;2023-03-26T08:16:04;8.90;99.90
5130;DHT22;2583;50.946;6.954;2023-03-26T08:21:48;8.90;99.90
5130;DHT22;2583;50.946;6.954;2023-03-26T08:24:25;8.90;99.90
5130;DHT22;2583;50.946;6.954;2023-03-26T08:30:22;9.00;99.90
5130;DHT22;2583;50.946;6.954;2023-03-26T08:32:55;9.00;99.90
5130;DHT22;2583;50.946;6.954;2023-03-26T08:35:23;9.00;99.90
5130;DHT22;2583;50.946;6.954;2023-03-26T08:37:51;9.10;99.90
5130;DHT22;2583;50.946;6.954;2023-03-26T08:43:26;9.10;99.90
5130;DHT22;2583;50.946;6.954;2023-03-26T08:54:39;9.10;99.90
5130;DHT22;2583;50.946;6.954;2023-03-26T08:57:21;9.10;99.90
5130;DHT22;2583;50.946;6.954;2023-03-26T09:08:33;9.20;99.90
5130;DHT22;2583;50.946;6.954;2023-03-26T09:17:21;9.10;99.90
5130;DHT22;2583;50.946;6.954;2023-03-26T09:42:45;9.00;99.90
5130;DHT22;2583;50.946;6.954;2023-03-26T09:51:22;9.00;99.90
5130;DHT22;2583;50.946;6.954;2023-03-26T10:16:14;9.50;99.90
5130;DHT22;2583;50.946;6.954;2023-03-26T10:19:19;9.50;99.90
5130;DHT22;2583;50.946;6.954;2023-03-26T10:22:19;9.50;99.90
5130;DHT22;2583;50.946;6.954;2023-03-26T10:41:27;9.70;99.90
5130;DHT22;2583;50.946;6.954;2023-03-26T10:44:29;9.80;99.90
5130;DHT22;2583;50.946;6.954;2023-03-26T10:47:33;9.80;99.90
5130;DHT22;2583;50.946;6.954;2023-03-26T10:55:53;10.00;99.90
5130;DHT22;2583;50.946;6.954;2023-03-26T10:58:24;10.10;99.90
5130;DHT22;2583;50.946;6.954;2023-03-26T11:01:01;10.20;99.90
5130;DHT22;2583;50.946;6.954;2023-03-26T11:03:42;10.30;99.90
5130;DHT22;2583;50.946;6.954;2023-03-26T11:20:45;10.40;99.90
5130;DHT22;2583;50.946;6.954;2023-03-26T11:23:35;10.30;99.90
5130;DHT22;2583;50.946;6.954;2023-03-26T11:31:53;10.30;99.90
5130;DHT22;2583;50.946;6.954;2023-03-26T11:37:41;10.30;99.90
5130;DHT22;2583;50.946;6.954;2023-03-26T11:40:14;10.40;99.90
5130;DHT22;2583;50.946;6.954;2023-03-26T11:42:42;10.40;99.90
5130;DHT22;2583;50.946;6.954;2023-03-26T11:45:18;10.50;99.90
5130;DHT22;2583;50.946;6.954;2023-03-26T11:47:58;10.50;99.90
5130;DHT22;2583;50.946;6.954;2023-03-26T11:50:30;10.50;99.90
5130;DHT22;2583;50.946;6.954;2023-03-26T11:53:05;10.60;99.90
5130;DHT22;2583;50.946;6.954;2023-03-26T11:55:39;10.60;99.90
5130;DHT22;2583;50.946;6.954;2023-03-26T11:58:25;10.70;99.90
5130;DHT22;2583;50.946;6.954;2023-03-26T12:00:53;10.60;99.90
5130;DHT22;2583;50.946;6.954;2023-03-26T12:03:21;10.60;99.90
5130;DHT22;2583;50.946;6.954;2023-03-26T12:05:50;10.60;99.90
5130;DHT22;2583;50.946;6.954;2023-03-26T12:08:29;10.70;99.90
5130;DHT22;2583;50.946;6.954;2023-03-26T12:11:09;10.70;99.90
5130;DHT22;2583;50.946;6.954;2023-03-26T12:13:54;10.70;99.90
5130;DHT22;2583;50.946;6.954;2023-03-26T12:16:24;10.70;99.90
5130;DHT22;2583;50.946;6.954;2023-03-26T12:19:18;10.90;99.90
5130;DHT22;2583;50.946;6.954;2023-03-26T12:21:48;10.90;99.90
5130;DHT22;2583;50.946;6.954;2023-03-26T12:24:27;11.00;99.90
5130;DHT22;2583;50.946;6.954;2023-03-26T12:27:00;10.90;99.90
5130;DHT22;2583;50.946;6.954;2023-03-26T12:29:28;10.80;99.90
5130;DHT22;2583;50.946;6.954;2023-03-26T12:32:05;10.80;99.90
5130;DHT22;2583;50.946;6.954;2023-03-26T12:34:35;10.70;99.90
5130;DHT22;2583;50.946;6.954;2023-03-26T12:37:05;10.70;99.90
5130;DHT22;2583;50.946;6.954;2023-03-26T12:39:40;10.70;99.90
5130;DHT22;2583;50.946;6.954;2023-03-26T12:42:30;10.70;99.90
5130;DHT22;2583;50.946;6.954;2023-03-26T12:45:20;10.70;99.90
5130;DHT22;2583;50.946;6.954;2023-03-26T12:47:49;10.70;99.90
5130;DHT22;2583;50.946;6.954;2023-03-26T12:54:12;10.80;99.90
5130;DHT22;2583;50.946;6.954;2023-03-26T13:05:40;10.70;99.90
5130;DHT22;2583;50.946;6.954;2023-03-26T13:11:18;10.70;99.90
5130;DHT22;2583;50.946;6.954;2023-03-26T13:25:03;10.60;99.90
5130;DHT22;2583;50.946;6.954;2023-03-26T13:30:26;10.80;99.90
5130;DHT22;2583;50.946;6.954;2023-03-26T13:33:34;10.90;99.90
5130;DHT22;2583;50.946;6.954;2023-03-26T13:38:53;10.90;99.90
5130;DHT22;2583;50.946;6.954;2023-03-26T13:41:37;10.90;99.90
5130;DHT22;2583;50.946;6.954;2023-03-26T13:47:02;10.70;99.90
5130;DHT22;2583;50.946;6.954;2023-03-26T13:49:36;10.60;99.90
5130;DHT22;2583;50.946;6.954;2023-03-26T13:57:36;10.60;99.90
5130;DHT22;2583;50.946;6.954;2023-03-26T14:00:12;10.60;99.90
5130;DHT22;2583;50.946;6.954;2023-03-26T14:02:43;10.70;99.90
5130;DHT22;2583;50.946;6.954;2023-03-26T14:05:20;10.90;99.90
5130;DHT22;2583;50.946;6.954;2023-03-26T14:07:58;10.90;99.90
5130;DHT22;2583;50.946;6.954;2023-03-26T14:10:30;11.10;99.90
5130;DHT22;2583;50.946;6.954;2023-03-26T14:13:20;11.10;99.90
5130;DHT22;2583;50.946;6.954;2023-03-26T14:15:56;11.30;99.90
5130;DHT22;2583;50.946;6.954;2023-03-26T14:26:52;11.30;99.90
5130;DHT22;2583;50.946;6.954;2023-03-26T14:29:39;11.30;99.90
5130;DHT22;2583;50.946;6.954;2023-03-26T14:32:38;11.30;99.90
5130;DHT22;2583;50.946;6.954;2023-03-26T14:35:35;11.30;99.90
5130;DHT22;2583;50.946;6.954;2023-03-26T14:54:19;11.60;99.90
5130;DHT22;2583;50.946;6.954;2023-03-26T15:14:41;11.30;99.90
5130;DHT22;2583;50.946;6.954;2023-03-26T15:31:39;10.90;99.90
5130;DHT22;2583;50.946;6.954;2023-03-26T15:37:31;11.00;99.90
5130;DHT22;2583;50.946;6.954;2023-03-26T15:42:57;10.90;99.90
5130;DHT22;2583;50.946;6.954;2023-03-26T15:45:50;10.80;99.90
5130;DHT22;2583;50.946;6.954;2023-03-26T16:02:17;10.20;99.90
5130;DHT22;2583;50.946;6.954;2023-03-26T16:15:48;10.00;99.90
5130;DHT22;2583;50.946;6.954;2023-03-26T16:18:24;10.00;99.90
5130;DHT22;2583;50.946;6.954;2023-03-26T16:23:35;9.90;99.90
5130;DHT22;2583;50.946;6.954;2023-03-26T16:31:27;9.70;99.90
5130;DHT22;2583;50.946;6.954;2023-03-26T16:36:38;9.60;99.90
5130;DHT22;2583;50.946;6.954;2023-03-26T16:46:59;9.60;99.90
5130;DHT22;2583;50.946;6.954;2023-03-26T16:52:49;9.60;99.90
5130;DHT22;2583;50.946;6.954;2023-03-26T17:04:05;9.50;99.90
5130;DHT22;2583;50.946;6.954;2023-03-26T17:12:05;9.40;99.90
5130;DHT22;2583;50.946;6.954;2023-03-26T17:20:34;9.30;99.90
5130;DHT22;2583;50.946;6.954;2023-03-26T17:26:00;9.20;99.90
5130;DHT22;2583;50.946;6.954;2023-03-26T17:28:39;9.20;99.90
5130;DHT22;2583;50.946;6.954;2023-03-26T17:31:22;9.10;99.90
5130;DHT22;2583;50.946;6.954;2023-03-26T17:33:52;9.10;99.90
5130;DHT22;2583;50.946;6.954;2023-03-26T17:36:29;9.10;99.90
5130;DHT22;2583;50.946;6.954;2023-03-26T17:39:03;9.00;99.90
5130;DHT22;2583;50.946;6.954;2023-03-26T17:42:10;9.00;99.90
5130;DHT22;2583;50.946;6.954;2023-03-26T17:50:20;8.90;99.90
5130;DHT22;2583;50.946;6.954;2023-03-26T17:52:58;8.90;99.90
5130;DHT22;2583;50.946;6.954;2023-03-26T17:55:31;8.90;99.90
5130;DHT22;2583;50.946;6.954;2023-03-26T17:58:02;8.90;99.90
5130;DHT22;2583;50.946;6.954;2023-03-26T18:00:34;8.90;99.90
5130;DHT22;2583;50.946;6.954;2023-03-26T18:05:39;8.80;99.90
5130;DHT22;2583;50.946;6.954;2023-03-26T18:08:52;8.90;99.90
5130;DHT22;2583;50.946;6.954;2023-03-26T18:19:15;8.80;99.90
5130;DHT22;2583;50.946;6.954;2023-03-26T18:21:47;8.70;99.90
5130;DHT22;2583;50.946;6.954;2023-03-26T18:24:23;8.70;99.90
5130;DHT22;2583;50.946;6.954;2023-03-26T18:26:55;8.70;99.90
5130;DHT22;2583;50.946;6.954;2023-03-26T18:29:34;8.70;99.90
5130;DHT22;2583;50.946;6.954;2023-03-26T18:32:20;8.60;99.90
5130;DHT22;2583;50.946;6.954;2023-03-26T18:34:58;8.60;99.90
5130;DHT22;2583;50.946;6.954;2023-03-26T18:37:32;8.50;99.90
5130;DHT22;2583;50.946;6.954;2023-03-26T18:42:29;8.50;99.90
5130;DHT22;2583;50.946;6.954;2023-03-26T18:44:57;8.40;99.90
5130;DHT22;2583;50.946;6.954;2023-03-26T18:47:28;8.50;99.90
5130;DHT22;2583;50.946;6.954;2023-03-26T18:49:56;8.50;99.90
5130;DHT22;2583;50.946;6.954;2023-03-26T18:52:26;8.50;99.90
5130;DHT22;2583;50.946;6.954;2023-03-26T18:54:54;8.50;99.90
5130;DHT22;2583;50.946;6.954;2023-03-26T18:57:24;8.50;99.90
5130;DHT22;2583;50.946;6.954;2023-03-26T18:59:53;8.50;99.90
5130;DHT22;2583;50.946;6.954;2023-03-26T19:02:20;8.50;99.90
5130;DHT22;2583;50.946;6.954;2023-03-26T19:04:49;8.60;99.90
5130;DHT22;2583;50.946;6.954;2023-03-26T19:07:21;8.60;99.90
5130;DHT22;2583;50.946;6.954;2023-03-26T19:09:49;8.50;99.90
5130;DHT22;2583;50.946;6.954;2023-03-26T19:12:23;8.50;99.90
5130;DHT22;2583;50.946;6.954;2023-03-26T19:14:57;8.60;99.90
5130;DHT22;2583;50.946;6.954;2023-03-26T19:17:33;8.50;99.90
5130;DHT22;2583;50.946;6.954;2023-03-26T19:20:05;8.40;99.90
5130;DHT22;2583;50.946;6.954;2023-03-26T19:22:35;8.40;99.90
5130;DHT22;2583;50.946;6.954;2023-03-26T19:25:03;8.40;99.90
5130;DHT22;2583;50.946;6.954;2023-03-26T19:27:31;8.30;99.90
5130;DHT22;2583;50.946;6.954;2023-03-26T19:29:58;8.30;99.90
5130;DHT22;2583;50.946;6.954;2023-03-26T19:32:29;8.30;99.90
5130;DHT22;2583;50.946;6.954;2023-03-26T19:34:59;8.30;99.90
5130;DHT22;2583;50.946;6.954;2023-03-26T19:37:28;8.20;99.90
5130;DHT22;2583;50.946;6.954;2023-03-26T19:40:16;8.20;99.90
5130;DHT22;2583;50.946;6.954;2023-03-26T19:42:44;8.30;99.90
5130;DHT22;2583;50.946;6.954;2023-03-26T19:45:21;8.30;99.90
5130;DHT22;2583;50.946;6.954;2023-03-26T19:47:49;8.20;99.90
5130;DHT22;2583;50.946;6.954;2023-03-26T19:50:35;8.20;99.90
5130;DHT22;2583;50.946;6.954;2023-03-26T19:55:52;8.20;99.90
5130;DHT22;2583;50.946;6.954;2023-03-26T19:58:19;8.10;99.90
5130;DHT22;2583;50.946;6.954;2023-03-26T20:00:46;8.10;99.90
5130;DHT22;2583;50.946;6.954;2023-03-26T20:03:14;8.20;99.90
5130;DHT22;2583;50.946;6.954;2023-03-26T20:05:42;8.10;99.90
5130;DHT22;2583;50.946;6.954;2023-03-26T20:08:12;8.10;99.90
5130;DHT22;2583;50.946;6.954;2023-03-26T20:10:40;8.10;99.90
5130;DHT22;2583;50.946;6.954;2023-03-26T20:13:15;8.10;99.90
5130;DHT22;2583;50.946;6.954;2023-03-26T20:15:56;8.00;99.90
5130;DHT22;2583;50.946;6.954;2023-03-26T20:18:32;8.00;99.90
5130;DHT22;2583;50.946;6.954;2023-03-26T20:20:59;8.00;99.90
5130;DHT22;2583;50.946;6.954;2023-03-26T20:23:26;8.00;99.90
5130;DHT22;2583;50.946;6.954;2023-03-26T20:25:54;8.00;99.90
5130;DHT22;2583;50.946;6.954;2023-03-26T20:28:22;7.90;99.90
5130;DHT22;2583;50.946;6.954;2023-03-26T20:30:50;7.90;99.90
5130;DHT22;2583;50.946;6.954;2023-03-26T20:33:22;7.90;99.90
5130;DHT22;2583;50.946;6.954;2023-03-26T20:35:55;7.80;99.90
5130;DHT22;2583;50.946;6.954;2023-03-26T20:38:25;7.90;99.90
5130;DHT22;2583;50.946;6.954;2023-03-26T20:41:10;7.90;99.90
5130;DHT22;2583;50.946;6.954;2023-03-26T20:43:38;7.80;99.90
5130;DHT22;2583;50.946;6.954;2023-03-26T20:46:04;7.80;99.90
5130;DHT22;2583;50.946;6.954;2023-03-26T20:48:32;7.80;99.90
5130;DHT22;2583;50.946;6.954;2023-03-26T20:50:59;7.80;99.90
5130;DHT22;2583;50.946;6.954;2023-03-26T20:53:26;7.80;99.90
5130;DHT22;2583;50.946;6.954;2023-03-26T20:55:53;7.70;99.90
5130;DHT22;2583;50.946;6.954;2023-03-26T20:58:20;7.70;99.90
5130;DHT22;2583;50.946;6.954;2023-03-26T21:00:59;7.70;99.90
5130;DHT22;2583;50.946;6.954;2023-03-26T21:03:27;7.60;99.90
5130;DHT22;2583;50.946;6.954;2023-03-26T21:05:58;7.60;99.20
5130;DHT22;2583;50.946;6.954;2023-03-26T21:08:26;7.50;97.60
5130;DHT22;2583;50.946;6.954;2023-03-26T21:11:00;7.50;96.70
5130;DHT22;2583;50.946;6.954;2023-03-26T21:13:45;7.40;95.80
5130;DHT22;2583;50.946;6.954;2023-03-26T21:16:14;7.40;95.80
5130;DHT22;2583;50.946;6.954;2023-03-26T21:18:42;7.40;96.30
5130;DHT22;2583;50.946;6.954;2023-03-26T21:23:58;7.30;94.70
5130;DHT22;2583;50.946;6.954;2023-03-26T21:26:52;7.20;95.30
5130;DHT22;2583;50.946;6.954;2023-03-26T21:29:19;7.20;93.50
5130;DHT22;2583;50.946;6.954;2023-03-26T21:31:46;7.20;94.30
5130;DHT22;2583;50.946;6.954;2023-03-26T21:34:14;7.10;92.00
5130;DHT22;2583;50.946;6.954;2023-03-26T21:36:42;7.10;90.80
5130;DHT22;2583;50.946;6.954;2023-03-26T21:39:10;7.10;90.70
5130;DHT22;2583;50.946;6.954;2023-03-26T21:41:49;7.00;84.90
5130;DHT22;2583;50.946;6.954;2023-03-26T21:44:32;7.00;88.70
5130;DHT22;2583;50.946;6.954;2023-03-26T21:46:59;7.00;87.70
5130;DHT22;2583;50.946;6.954;2023-03-26T21:49:26;6.90;86.30
5130;DHT22;2583;50.946;6.954;2023-03-26T21:51:53;7.00;85.70
5130;DHT22;2583;50.946;6.954;2023-03-26T21:54:22;6.90;84.50
5130;DHT22;2583;50.946;6.954;2023-03-26T21:57:43;6.90;84.60
5130;DHT22;2583;50.946;6.954;2023-03-26T22:00:07;7.00;83.50
5130;DHT22;2583;50.946;6.954;2023-03-26T22:05:14;6.80;82.90
5130;DHT22;2583;50.946;6.954;2023-03-26T22:07:55;6.80;82.50
5130;DHT22;2583;50.946;6.954;2023-03-26T22:10:22;6.80;83.60
5130;DHT22;2583;50.946;6.954;2023-03-26T22:12:49;6.80;82.20
5130;DHT22;2583;50.946;6.954;2023-03-26T22:15:16;6.70;80.70
5130;DHT22;2583;50.946;6.954;2023-03-26T22:17:44;6.60;81.50
5130;DHT22;2583;50.946;6.954;2023-03-26T22:20:13;6.60;84.00
5130;DHT22;2583;50.946;6.954;2023-03-26T22:22:41;6.70;86.60
5130;DHT22;2583;50.946;6.954;2023-03-26T22:25:18;6.70;86.40
5130;DHT22;2583;50.946;6.954;2023-03-26T22:27:46;6.70;86.90
5130;DHT22;2583;50.946;6.954;2023-03-26T22:30:14;6.60;84.50
5130;DHT22;2583;50.946;6.954;2023-03-26T22:32:41;6.60;86.90
5130;DHT22;2583;50.946;6.954;2023-03-26T22:35:09;6.60;85.90
5130;DHT22;2583;50.946;6.954;2023-03-26T22:37:36;6.60;84.40
5130;DHT22;2583;50.946;6.954;2023-03-26T22:40:04;6.50;80.90
5130;DHT22;2583;50.946;6.954;2023-03-26T22:42:35;6.50;83.30
5130;DHT22;2583;50.946;6.954;2023-03-26T22:45:03;6.40;84.50
5130;DHT22;2583;50.946;6.954;2023-03-26T22:47:30;6.30;80.30
5130;DHT22;2583;50.946;6.954;2023-03-26T22:49:59;6.20;83.80
5130;DHT22;2583;50.946;6.954;2023-03-26T22:52:28;6.10;86.40
5130;DHT22;2583;50.946;6.954;2023-03-26T22:54:55;6.10;86.50